sensor_id;sensor_type;location;lat;lon;timestamp;pressure;altitude;pressure_sealevel;temperature;humidity
28079;BME280;15388;42.238;24.684;2022-11-11T00:02:22;100580.75;;;6.92;100.00
28079;BME280;15388;42.238;24.684;2022-11-11T00:04:47;100581.09;;;7.02;100.00
28079;BME280;15388;42.238;24.684;2022-11-11T00:07:12;100585.84;;;7.11;100.00
28079;BME280;15388;42.238;24.684;2022-11-11T00:09:37;100581.06;;;7.18;100.00
28079;BME280;15388;42.238;24.684;2022-11-11T00:12:03;100587.88;;;7.22;100.00
28079;BME280;15388;42.238;24.684;2022-11-11T00:14:29;100581.72;;;7.22;100.00
28079;BME280;15388;42.238;24.684;2022-11-11T00:16:54;100579.41;;;7.16;100.00
28079;BME280;15388;42.238;24.684;2022-11-11T00:19:38;100582.88;;;7.01;100.00
28079;BME280;15388;42.238;24.684;2022-11-11T00:22:22;100577.84;;;6.97;100.00
28079;BME280;15388;42.238;24.684;2022-11-11T00:25:07;100578.63;;;6.99;100.00
28079;BME280;15388;42.238;24.684;2022-11-11T00:27:33;100581.47;;;6.63;100.00
28079;BME280;15388;42.238;24.684;2022-11-11T00:29:59;100565.41;;;6.34;100.00
28079;BME280;15388;42.238;24.684;2022-11-11T00:32:24;100576.00;;;6.50;100.00
28079;BME280;15388;42.238;24.684;2022-11-11T00:34:55;100582.91;;;6.53;100.00
28079;BME280;15388;42.238;24.684;2022-11-11T00:37:39;100572.41;;;6.35;100.00
28079;BME280;15388;42.238;24.684;2022-11-11T00:40:05;100575.28;;;6.15;100.00
28079;BME280;15388;42.238;24.684;2022-11-11T00:42:30;100575.69;;;6.07;100.00
28079;BME280;15388;42.238;24.684;2022-11-11T00:44:55;100575.91;;;6.02;100.00
28079;BME280;15388;42.238;24.684;2022-11-11T00:47:21;100573.72;;;6.10;100.00
28079;BME280;15388;42.238;24.684;2022-11-11T00:50:06;100567.94;;;6.20;100.00
28079;BME280;15388;42.238;24.684;2022-11-11T00:52:50;100561.97;;;6.32;100.00
28079;BME280;15388;42.238;24.684;2022-11-11T00:55:15;100569.66;;;6.37;100.00
28079;BME280;15388;42.238;24.684;2022-11-11T00:57:41;100564.91;;;6.44;100.00
28079;BME280;15388;42.238;24.684;2022-11-11T01:00:06;100570.00;;;6.47;100.00
28079;BME280;15388;42.238;24.684;2022-11-11T01:02:32;100570.53;;;6.54;100.00
28079;BME280;15388;42.238;24.684;2022-11-11T01:04:57;100561.41;;;6.59;100.00
28079;BME280;15388;42.238;24.684;2022-11-11T01:07:22;100562.28;;;6.60;100.00
28079;BME280;15388;42.238;24.684;2022-11-11T01:09:48;100554.84;;;6.67;100.00
28079;BME280;15388;42.238;24.684;2022-11-11T01:12:13;100548.50;;;6.69;100.00
28079;BME280;15388;42.238;24.684;2022-11-11T01:14:39;100545.78;;;6.71;100.00
28079;BME280;15388;42.238;24.684;2022-11-11T01:17:04;100550.75;;;6.77;100.00
28079;BME280;15388;42.238;24.684;2022-11-11T01:19:30;100549.72;;;6.63;100.00
28079;BME280;15388;42.238;24.684;2022-11-11T01:21:55;100550.50;;;6.66;100.00
28079;BME280;15388;42.238;24.684;2022-11-11T01:24:21;100542.63;;;6.64;100.00
28079;BME280;15388;42.238;24.684;2022-11-11T01:26:46;100551.69;;;6.44;100.00
28079;BME280;15388;42.238;24.684;2022-11-11T01:29:11;100544.25;;;6.34;100.00
28079;BME280;15388;42.238;24.684;2022-11-11T01:31:36;100541.00;;;6.13;100.00
28079;BME280;15388;42.238;24.684;2022-11-11T01:34:02;100542.19;;;6.07;100.00
28079;BME280;15388;42.238;24.684;2022-11-11T01:36:27;100538.31;;;5.97;100.00
28079;BME280;15388;42.238;24.684;2022-11-11T01:38:53;100538.63;;;5.91;100.00
28079;BME280;15388;42.238;24.684;2022-11-11T01:41:23;100542.53;;;5.83;100.00
28079;BME280;15388;42.238;24.684;2022-11-11T01:46:37;100539.25;;;5.78;100.00
28079;BME280;15388;42.238;24.684;2022-11-11T01:49:23;100533.22;;;5.76;100.00
28079;BME280;15388;42.238;24.684;2022-11-11T01:54:33;100552.84;;;5.37;100.00
28079;BME280;15388;42.238;24.684;2022-11-11T01:57:10;100557.47;;;4.96;100.00
28079;BME280;15388;42.238;24.684;2022-11-11T01:59:36;100555.50;;;4.45;100.00
28079;BME280;15388;42.238;24.684;2022-11-11T02:02:04;100554.47;;;4.28;100.00
28079;BME280;15388;42.238;24.684;2022-11-11T02:04:32;100561.47;;;4.29;100.00
28079;BME280;15388;42.238;24.684;2022-11-11T02:07:15;100552.38;;;4.17;100.00
28079;BME280;15388;42.238;24.684;2022-11-11T02:09:42;100558.16;;;4.05;100.00
28079;BME280;15388;42.238;24.684;2022-11-11T02:12:09;100555.31;;;3.90;100.00
28079;BME280;15388;42.238;24.684;2022-11-11T02:14:54;100558.59;;;3.95;100.00
28079;BME280;15388;42.238;24.684;2022-11-11T02:17:22;100557.16;;;4.07;100.00
28079;BME280;15388;42.238;24.684;2022-11-11T02:22:22;100559.63;;;4.31;100.00
28079;BME280;15388;42.238;24.684;2022-11-11T02:24:49;100563.34;;;4.46;100.00
28079;BME280;15388;42.238;24.684;2022-11-11T02:27:16;100554.47;;;4.67;100.00
28079;BME280;15388;42.238;24.684;2022-11-11T02:29:42;100551.09;;;4.82;100.00
28079;BME280;15388;42.238;24.684;2022-11-11T02:32:10;100551.13;;;5.00;100.00
28079;BME280;15388;42.238;24.684;2022-11-11T02:34:35;100546.78;;;5.17;100.00
28079;BME280;15388;42.238;24.684;2022-11-11T02:37:01;100551.44;;;5.29;100.00
28079;BME280;15388;42.238;24.684;2022-11-11T02:39:27;100553.13;;;5.30;100.00
28079;BME280;15388;42.238;24.684;2022-11-11T02:41:53;100546.31;;;5.26;100.00
28079;BME280;15388;42.238;24.684;2022-11-11T02:44:22;100551.59;;;5.26;100.00
28079;BME280;15388;42.238;24.684;2022-11-11T02:46:47;100555.25;;;5.23;100.00
28079;BME280;15388;42.238;24.684;2022-11-11T02:49:13;100560.75;;;5.19;100.00
28079;BME280;15388;42.238;24.684;2022-11-11T02:51:38;100562.00;;;5.29;100.00
28079;BME280;15388;42.238;24.684;2022-11-11T02:54:03;100560.59;;;5.22;100.00
28079;BME280;15388;42.238;24.684;2022-11-11T02:56:28;100558.56;;;5.27;100.00
28079;BME280;15388;42.238;24.684;2022-11-11T02:59:12;100563.31;;;5.20;100.00
28079;BME280;15388;42.238;24.684;2022-11-11T03:01:38;100553.06;;;5.14;100.00
28079;BME280;15388;42.238;24.684;2022-11-11T03:04:03;100554.38;;;5.05;100.00
28079;BME280;15388;42.238;24.684;2022-11-11T03:06:29;100551.97;;;5.01;100.00
28079;BME280;15388;42.238;24.684;2022-11-11T03:08:54;100554.50;;;4.84;100.00
28079;BME280;15388;42.238;24.684;2022-11-11T03:11:19;100552.53;;;4.70;100.00
28079;BME280;15388;42.238;24.684;2022-11-11T03:13:58;100558.78;;;4.87;100.00
28079;BME280;15388;42.238;24.684;2022-11-11T03:16:23;100547.06;;;4.93;100.00
28079;BME280;15388;42.238;24.684;2022-11-11T03:19:07;100555.31;;;5.04;100.00
28079;BME280;15388;42.238;24.684;2022-11-11T03:21:32;100558.09;;;5.01;100.00
28079;BME280;15388;42.238;24.684;2022-11-11T03:23:57;100560.81;;;5.00;100.00
28079;BME280;15388;42.238;24.684;2022-11-11T03:26:23;100564.91;;;5.05;100.00
28079;BME280;15388;42.238;24.684;2022-11-11T03:28:48;100551.44;;;5.12;100.00
28079;BME280;15388;42.238;24.684;2022-11-11T03:31:14;100557.34;;;5.17;100.00
28079;BME280;15388;42.238;24.684;2022-11-11T03:33:39;100546.78;;;5.17;100.00
28079;BME280;15388;42.238;24.684;2022-11-11T03:36:04;100555.16;;;5.25;100.00
28079;BME280;15388;42.238;24.684;2022-11-11T03:38:30;100556.47;;;5.16;100.00
28079;BME280;15388;42.238;24.684;2022-11-11T03:40:56;100550.66;;;5.09;100.00
28079;BME280;15388;42.238;24.684;2022-11-11T03:43:23;100559.19;;;5.15;100.00
28079;BME280;15388;42.238;24.684;2022-11-11T03:45:48;100560.06;;;5.15;100.00
28079;BME280;15388;42.238;24.684;2022-11-11T03:48:14;100544.75;;;5.22;100.00
28079;BME280;15388;42.238;24.684;2022-11-11T03:50:40;100545.63;;;5.22;100.00
28079;BME280;15388;42.238;24.684;2022-11-11T03:53:05;100547.16;;;4.91;100.00
28079;BME280;15388;42.238;24.684;2022-11-11T03:55:30;100546.47;;;4.88;100.00
28079;BME280;15388;42.238;24.684;2022-11-11T03:57:56;100552.50;;;4.90;100.00
28079;BME280;15388;42.238;24.684;2022-11-11T04:00:24;100562.72;;;4.59;100.00
28079;BME280;15388;42.238;24.684;2022-11-11T04:02:50;100564.31;;;4.44;100.00
28079;BME280;15388;42.238;24.684;2022-11-11T04:05:34;100563.06;;;4.33;100.00
28079;BME280;15388;42.238;24.684;2022-11-11T04:08:18;100563.03;;;4.14;100.00
28079;BME280;15388;42.238;24.684;2022-11-11T04:11:05;100557.16;;;4.07;100.00
28079;BME280;15388;42.238;24.684;2022-11-11T04:13:32;100567.97;;;3.82;100.00
28079;BME280;15388;42.238;24.684;2022-11-11T04:16:15;100570.28;;;3.90;100.00
28079;BME280;15388;42.238;24.684;2022-11-11T04:18:41;100569.13;;;3.95;100.00
28079;BME280;15388;42.238;24.684;2022-11-11T04:21:24;100584.81;;;4.18;100.00
28079;BME280;15388;42.238;24.684;2022-11-11T04:24:20;100570.97;;;4.33;100.00
28079;BME280;15388;42.238;24.684;2022-11-11T04:27:06;100573.72;;;4.30;100.00
28079;BME280;15388;42.238;24.684;2022-11-11T04:29:31;100570.03;;;4.35;100.00
28079;BME280;15388;42.238;24.684;2022-11-11T04:31:58;100572.59;;;4.55;100.00
28079;BME280;15388;42.238;24.684;2022-11-11T04:34:43;100579.63;;;4.55;100.00
28079;BME280;15388;42.238;24.684;2022-11-11T04:37:09;100584.38;;;4.66;100.00
28079;BME280;15388;42.238;24.684;2022-11-11T04:39:34;100582.13;;;4.77;100.00
28079;BME280;15388;42.238;24.684;2022-11-11T04:42:18;100591.25;;;4.70;100.00
28079;BME280;15388;42.238;24.684;2022-11-11T04:44:43;100586.38;;;4.80;100.00
28079;BME280;15388;42.238;24.684;2022-11-11T04:47:27;100586.66;;;4.93;100.00
28079;BME280;15388;42.238;24.684;2022-11-11T04:49:52;100586.50;;;4.96;100.00
28079;BME280;15388;42.238;24.684;2022-11-11T04:52:17;100589.59;;;5.04;100.00
28079;BME280;15388;42.238;24.684;2022-11-11T04:54:53;100582.09;;;5.14;100.00
28079;BME280;15388;42.238;24.684;2022-11-11T04:57:41;100594.09;;;4.84;100.00
28079;BME280;15388;42.238;24.684;2022-11-11T05:00:11;100586.50;;;4.96;100.00
28079;BME280;15388;42.238;24.684;2022-11-11T05:02:36;100591.31;;;4.88;100.00
28079;BME280;15388;42.238;24.684;2022-11-11T05:05:20;100596.13;;;4.97;100.00
28079;BME280;15388;42.238;24.684;2022-11-11T05:07:46;100587.34;;;4.96;100.00
28079;BME280;15388;42.238;24.684;2022-11-11T05:10:29;100584.16;;;4.90;100.00
28079;BME280;15388;42.238;24.684;2022-11-11T05:12:55;100582.34;;;4.72;100.00
28079;BME280;15388;42.238;24.684;2022-11-11T05:15:42;100580.84;;;4.67;100.00
28079;BME280;15388;42.238;24.684;2022-11-11T05:18:25;100580.16;;;4.81;100.00
28079;BME280;15388;42.238;24.684;2022-11-11T05:21:20;100587.75;;;4.50;100.00
28079;BME280;15388;42.238;24.684;2022-11-11T05:23:48;100591.53;;;4.64;100.00
28079;BME280;15388;42.238;24.684;2022-11-11T05:26:32;100591.38;;;4.67;100.00
28079;BME280;15388;42.238;24.684;2022-11-11T05:28:57;100596.53;;;4.70;100.00
28079;BME280;15388;42.238;24.684;2022-11-11T05:31:23;100597.47;;;4.87;100.00
28079;BME280;15388;42.238;24.684;2022-11-11T05:33:48;100599.63;;;4.97;100.00
28079;BME280;15388;42.238;24.684;2022-11-11T05:36:13;100605.72;;;4.98;100.00
28079;BME280;15388;42.238;24.684;2022-11-11T05:38:38;100606.63;;;4.79;100.00
28079;BME280;15388;42.238;24.684;2022-11-11T05:41:04;100600.34;;;4.82;100.00
28079;BME280;15388;42.238;24.684;2022-11-11T05:43:30;100603.03;;;5.00;100.00
28079;BME280;15388;42.238;24.684;2022-11-11T05:45:55;100600.41;;;5.17;100.00
28079;BME280;15388;42.238;24.684;2022-11-11T05:48:20;100616.50;;;5.30;100.00
28079;BME280;15388;42.238;24.684;2022-11-11T05:50:45;100618.63;;;5.41;100.00
28079;BME280;15388;42.238;24.684;2022-11-11T05:53:11;100617.59;;;5.44;100.00
28079;BME280;15388;42.238;24.684;2022-11-11T05:55:36;100619.22;;;5.46;100.00
28079;BME280;15388;42.238;24.684;2022-11-11T05:58:01;100616.81;;;5.59;100.00
28079;BME280;15388;42.238;24.684;2022-11-11T06:00:26;100612.69;;;5.71;100.00
28079;BME280;15388;42.238;24.684;2022-11-11T06:02:52;100605.72;;;5.88;100.00
28079;BME280;15388;42.238;24.684;2022-11-11T06:05:17;100613.06;;;5.99;100.00
28079;BME280;15388;42.238;24.684;2022-11-11T06:07:42;100613.44;;;6.09;100.00
28079;BME280;15388;42.238;24.684;2022-11-11T06:10:08;100622.88;;;6.15;100.00
28079;BME280;15388;42.238;24.684;2022-11-11T06:12:52;100616.44;;;6.36;100.00
28079;BME280;15388;42.238;24.684;2022-11-11T06:15:29;100623.94;;;6.60;100.00
28079;BME280;15388;42.238;24.684;2022-11-11T06:17:55;100623.97;;;6.77;100.00
28079;BME280;15388;42.238;24.684;2022-11-11T06:20:21;100630.69;;;6.82;100.00
28079;BME280;15388;42.238;24.684;2022-11-11T06:22:46;100634.53;;;6.93;100.00
28079;BME280;15388;42.238;24.684;2022-11-11T06:25:20;100643.25;;;7.11;100.00
28079;BME280;15388;42.238;24.684;2022-11-11T06:28:04;100636.03;;;7.29;100.00
28079;BME280;15388;42.238;24.684;2022-11-11T06:30:30;100648.38;;;7.45;100.00
28079;BME280;15388;42.238;24.684;2022-11-11T06:32:55;100649.78;;;7.67;100.00
28079;BME280;15388;42.238;24.684;2022-11-11T06:35:20;100646.97;;;7.84;100.00
28079;BME280;15388;42.238;24.684;2022-11-11T06:37:45;100660.84;;;8.04;100.00
28079;BME280;15388;42.238;24.684;2022-11-11T06:40:11;100651.00;;;8.21;100.00
28079;BME280;15388;42.238;24.684;2022-11-11T06:42:36;100652.53;;;8.39;100.00
28079;BME280;15388;42.238;24.684;2022-11-11T06:45:02;100653.09;;;8.59;100.00
28079;BME280;15388;42.238;24.684;2022-11-11T06:47:27;100651.94;;;8.78;100.00
28079;BME280;15388;42.238;24.684;2022-11-11T06:49:52;100649.44;;;8.89;100.00
28079;BME280;15388;42.238;24.684;2022-11-11T06:52:18;100651.19;;;9.18;100.00
28079;BME280;15388;42.238;24.684;2022-11-11T06:54:43;100649.47;;;9.45;100.00
28079;BME280;15388;42.238;24.684;2022-11-11T06:57:08;100647.28;;;9.64;100.00
28079;BME280;15388;42.238;24.684;2022-11-11T06:59:33;100636.34;;;9.82;100.00
28079;BME280;15388;42.238;24.684;2022-11-11T07:01:59;100636.78;;;10.02;100.00
28079;BME280;15388;42.238;24.684;2022-11-11T07:04:24;100643.03;;;10.27;100.00
28079;BME280;15388;42.238;24.684;2022-11-11T07:06:49;100632.50;;;10.51;100.00
28079;BME280;15388;42.238;24.684;2022-11-11T07:09:14;100631.81;;;10.74;100.00
28079;BME280;15388;42.238;24.684;2022-11-11T07:11:40;100635.16;;;11.02;100.00
28079;BME280;15388;42.238;24.684;2022-11-11T07:14:05;100633.31;;;11.27;100.00
28079;BME280;15388;42.238;24.684;2022-11-11T07:16:30;100623.13;;;11.56;100.00
28079;BME280;15388;42.238;24.684;2022-11-11T07:18:55;100620.41;;;11.81;100.00
28079;BME280;15388;42.238;24.684;2022-11-11T07:21:21;100625.34;;;12.10;100.00
28079;BME280;15388;42.238;24.684;2022-11-11T07:23:46;100624.63;;;12.42;100.00
28079;BME280;15388;42.238;24.684;2022-11-11T07:26:11;100636.63;;;12.59;100.00
28079;BME280;15388;42.238;24.684;2022-11-11T07:28:36;100639.88;;;12.74;100.00
28079;BME280;15388;42.238;24.684;2022-11-11T07:31:02;100643.19;;;12.99;100.00
28079;BME280;15388;42.238;24.684;2022-11-11T07:33:27;100653.75;;;13.12;100.00
28079;BME280;15388;42.238;24.684;2022-11-11T07:35:52;100652.97;;;13.22;100.00
28079;BME280;15388;42.238;24.684;2022-11-11T07:38:17;100654.34;;;13.16;100.00
28079;BME280;15388;42.238;24.684;2022-11-11T07:40:43;100651.38;;;12.98;100.00
28079;BME280;15388;42.238;24.684;2022-11-11T07:43:08;100657.09;;;12.82;100.00
28079;BME280;15388;42.238;24.684;2022-11-11T07:45:33;100660.50;;;12.84;100.00
28079;BME280;15388;42.238;24.684;2022-11-11T07:47:59;100649.19;;;12.92;100.00
28079;BME280;15388;42.238;24.684;2022-11-11T07:50:24;100653.78;;;12.90;100.00
28079;BME280;15388;42.238;24.684;2022-11-11T07:52:49;100653.09;;;12.76;100.00
28079;BME280;15388;42.238;24.684;2022-11-11T07:55:14;100647.75;;;12.76;100.00
28079;BME280;15388;42.238;24.684;2022-11-11T07:57:40;100653.84;;;12.67;100.00
28079;BME280;15388;42.238;24.684;2022-11-11T08:00:05;100657.84;;;12.72;100.00
28079;BME280;15388;42.238;24.684;2022-11-11T08:02:31;100657.09;;;12.82;100.00
28079;BME280;15388;42.238;24.684;2022-11-11T08:04:56;100652.19;;;12.98;100.00
28079;BME280;15388;42.238;24.684;2022-11-11T08:07:22;100657.50;;;13.10;100.00
28079;BME280;15388;42.238;24.684;2022-11-11T08:09:47;100649.59;;;13.20;100.00
28079;BME280;15388;42.238;24.684;2022-11-11T08:12:12;100649.50;;;13.43;100.00
28079;BME280;15388;42.238;24.684;2022-11-11T08:14:56;100643.50;;;13.62;100.00
28079;BME280;15388;42.238;24.684;2022-11-11T08:17:21;100651.13;;;13.67;100.00
28079;BME280;15388;42.238;24.684;2022-11-11T08:19:46;100650.88;;;13.70;100.00
28079;BME280;15388;42.238;24.684;2022-11-11T08:22:12;100659.09;;;13.78;100.00
28079;BME280;15388;42.238;24.684;2022-11-11T08:24:37;100656.66;;;13.96;100.00
28079;BME280;15388;42.238;24.684;2022-11-11T08:27:02;100649.56;;;14.07;100.00
28079;BME280;15388;42.238;24.684;2022-11-11T08:29:28;100652.28;;;14.17;100.00
28079;BME280;15388;42.238;24.684;2022-11-11T08:31:53;100652.06;;;14.30;100.00
28079;BME280;15388;42.238;24.684;2022-11-11T08:34:20;100659.47;;;14.47;100.00
28079;BME280;15388;42.238;24.684;2022-11-11T08:36:45;100651.88;;;14.52;100.00
28079;BME280;15388;42.238;24.684;2022-11-11T08:39:11;100661.50;;;14.65;100.00
28079;BME280;15388;42.238;24.684;2022-11-11T08:41:36;100658.97;;;14.73;100.00
28079;BME280;15388;42.238;24.684;2022-11-11T08:44:01;100666.06;;;14.74;100.00
28079;BME280;15388;42.238;24.684;2022-11-11T08:46:28;100670.50;;;14.95;100.00
28079;BME280;15388;42.238;24.684;2022-11-11T08:48:54;100667.72;;;15.07;100.00
28079;BME280;15388;42.238;24.684;2022-11-11T08:51:19;100679.84;;;15.11;100.00
28079;BME280;15388;42.238;24.684;2022-11-11T08:53:44;100675.78;;;15.17;100.00
28079;BME280;15388;42.238;24.684;2022-11-11T08:56:10;100682.25;;;15.24;100.00
28079;BME280;15388;42.238;24.684;2022-11-11T08:58:36;100681.97;;;15.17;100.00
28079;BME280;15388;42.238;24.684;2022-11-11T09:01:01;100677.72;;;15.24;100.00
28079;BME280;15388;42.238;24.684;2022-11-11T09:03:28;100680.28;;;15.26;100.00
28079;BME280;15388;42.238;24.684;2022-11-11T09:05:54;100677.72;;;15.24;100.00
28079;BME280;15388;42.238;24.684;2022-11-11T09:08:19;100687.09;;;15.40;100.00
28079;BME280;15388;42.238;24.684;2022-11-11T09:10:47;100682.00;;;15.47;100.00
28079;BME280;15388;42.238;24.684;2022-11-11T09:13:12;100682.00;;;15.47;100.00
28079;BME280;15388;42.238;24.684;2022-11-11T09:15:38;100686.94;;;15.51;100.00
28079;BME280;15388;42.238;24.684;2022-11-11T09:18:03;100684.53;;;15.48;100.00
28079;BME280;15388;42.238;24.684;2022-11-11T09:20:28;100679.44;;;15.45;100.00
28079;BME280;15388;42.238;24.684;2022-11-11T09:22:54;100674.09;;;15.45;100.00
28079;BME280;15388;42.238;24.684;2022-11-11T09:25:19;100673.81;;;15.48;100.00
28079;BME280;15388;42.238;24.684;2022-11-11T09:27:52;100671.94;;;15.39;100.00
28079;BME280;15388;42.238;24.684;2022-11-11T09:30:17;100665.91;;;15.37;100.00
28079;BME280;15388;42.238;24.684;2022-11-11T09:32:43;100669.00;;;15.42;100.00
28079;BME280;15388;42.238;24.684;2022-11-11T09:35:08;100677.03;;;15.42;100.00
28079;BME280;15388;42.238;24.684;2022-11-11T09:37:33;100674.34;;;15.32;100.00
28079;BME280;15388;42.238;24.684;2022-11-11T09:39:58;100672.94;;;15.28;100.00
28079;BME280;15388;42.238;24.684;2022-11-11T09:45:08;100671.53;;;15.34;100.00
28079;BME280;15388;42.238;24.684;2022-11-11T09:50:23;100669.56;;;15.36;100.00
28079;BME280;15388;42.238;24.684;2022-11-11T09:52:59;100668.44;;;15.38;100.00
28079;BME280;15388;42.238;24.684;2022-11-11T09:55:32;100672.41;;;15.44;100.00
28079;BME280;15388;42.238;24.684;2022-11-11T09:58:04;100664.63;;;15.41;100.00
28079;BME280;15388;42.238;24.684;2022-11-11T10:00:34;100666.63;;;15.49;100.00
28079;BME280;15388;42.238;24.684;2022-11-11T10:03:03;100674.66;;;15.49;100.00
28079;BME280;15388;42.238;24.684;2022-11-11T10:05:44;100675.34;;;15.41;100.00
28079;BME280;15388;42.238;24.684;2022-11-11T10:08:34;100671.13;;;15.28;100.00
28079;BME280;15388;42.238;24.684;2022-11-11T10:10:58;100672.94;;;15.18;100.00
28079;BME280;15388;42.238;24.684;2022-11-11T10:13:31;100671.53;;;15.14;100.00
28079;BME280;15388;42.238;24.684;2022-11-11T10:15:59;100674.03;;;15.06;100.00
28079;BME280;15388;42.238;24.684;2022-11-11T10:20:55;100672.91;;;14.98;100.00
28079;BME280;15388;42.238;24.684;2022-11-11T10:23:39;100671.88;;;14.89;100.00
28079;BME280;15388;42.238;24.684;2022-11-11T10:26:12;100671.22;;;14.97;100.00
28079;BME280;15388;42.238;24.684;2022-11-11T10:28:44;100673.03;;;14.87;100.00
28079;BME280;15388;42.238;24.684;2022-11-11T10:31:19;100668.81;;;14.94;100.00
28079;BME280;15388;42.238;24.684;2022-11-11T10:33:51;100665.84;;;14.97;100.00
28079;BME280;15388;42.238;24.684;2022-11-11T10:36:17;100664.16;;;14.96;100.00
28079;BME280;15388;42.238;24.684;2022-11-11T10:41:18;100663.31;;;15.06;100.00
28079;BME280;15388;42.238;24.684;2022-11-11T10:43:44;100663.91;;;15.09;100.00
28079;BME280;15388;42.238;24.684;2022-11-11T10:49:01;100665.88;;;15.17;100.00
28079;BME280;15388;42.238;24.684;2022-11-11T10:51:34;100668.13;;;15.22;100.00
28079;BME280;15388;42.238;24.684;2022-11-11T10:54:05;100667.00;;;15.24;100.00
28079;BME280;15388;42.238;24.684;2022-11-11T10:59:01;100668.28;;;15.20;100.00
28079;BME280;15388;42.238;24.684;2022-11-11T11:02:04;100675.63;;;15.18;100.00
28079;BME280;15388;42.238;24.684;2022-11-11T11:04:25;100665.03;;;15.17;100.00
28079;BME280;15388;42.238;24.684;2022-11-11T11:06:53;100661.78;;;15.13;100.00
28079;BME280;15388;42.238;24.684;2022-11-11T11:09:25;100656.69;;;15.10;100.00
28079;BME280;15388;42.238;24.684;2022-11-11T11:12:54;100656.69;;;15.10;100.00
28079;BME280;15388;42.238;24.684;2022-11-11T11:14:46;100654.88;;;15.20;100.00
28079;BME280;15388;42.238;24.684;2022-11-11T11:17:15;100658.69;;;15.27;100.00
28079;BME280;15388;42.238;24.684;2022-11-11T11:19:41;100657.13;;;15.35;100.00
28079;BME280;15388;42.238;24.684;2022-11-11T11:22:06;100648.81;;;15.38;100.00
28079;BME280;15388;42.238;24.684;2022-11-11T11:24:32;100651.22;;;15.41;100.00
28079;BME280;15388;42.238;24.684;2022-11-11T11:26:59;100645.28;;;15.47;100.00
28079;BME280;15388;42.238;24.684;2022-11-11T11:29:31;100640.34;;;15.52;100.00
28079;BME280;15388;42.238;24.684;2022-11-11T11:34:46;100625.09;;;15.63;100.00
28079;BME280;15388;42.238;24.684;2022-11-11T11:37:11;100631.56;;;15.70;100.00
28079;BME280;15388;42.238;24.684;2022-11-11T11:39:39;100635.66;;;15.74;100.00
28079;BME280;15388;42.238;24.684;2022-11-11T11:42:05;100626.78;;;15.74;100.00
28079;BME280;15388;42.238;24.684;2022-11-11T11:44:34;100630.56;;;15.81;100.00
28079;BME280;15388;42.238;24.684;2022-11-11T11:47:02;100623.22;;;15.83;100.00
28079;BME280;15388;42.238;24.684;2022-11-11T11:55:17;100631.41;;;16.01;100.00
28079;BME280;15388;42.238;24.684;2022-11-11T12:10:33;100629.06;;;16.26;100.00
28079;BME280;15388;42.238;24.684;2022-11-11T12:18:17;100645.06;;;16.08;100.00
28079;BME280;15388;42.238;24.684;2022-11-11T12:20:49;100640.00;;;16.05;100.00
28079;BME280;15388;42.238;24.684;2022-11-11T12:23:25;100642.44;;;15.98;100.00
28079;BME280;15388;42.238;24.684;2022-11-11T12:26:12;100638.75;;;15.99;100.00
28079;BME280;15388;42.238;24.684;2022-11-11T12:31:27;100639.28;;;15.93;100.00
28079;BME280;15388;42.238;24.684;2022-11-11T12:36:39;100637.66;;;15.72;100.00
28079;BME280;15388;42.238;24.684;2022-11-11T12:44:20;100631.69;;;15.78;100.00
28079;BME280;15388;42.238;24.684;2022-11-11T12:54:30;100644.09;;;15.89;100.00
28079;BME280;15388;42.238;24.684;2022-11-11T13:12:47;100638.63;;;15.71;100.00
28079;BME280;15388;42.238;24.684;2022-11-11T13:15:17;100642.00;;;15.73;100.00
28079;BME280;15388;42.238;24.684;2022-11-11T13:17:44;100646.13;;;15.68;100.00
28079;BME280;15388;42.238;24.684;2022-11-11T13:20:34;100650.06;;;15.73;100.00
28079;BME280;15388;42.238;24.684;2022-11-11T13:23:06;100644.41;;;15.76;100.00
28079;BME280;15388;42.238;24.684;2022-11-11T13:25:32;100647.78;;;15.78;100.00
28079;BME280;15388;42.238;24.684;2022-11-11T13:28:01;100651.47;;;15.77;100.00
28079;BME280;15388;42.238;24.684;2022-11-11T13:33:16;100651.47;;;15.77;100.00
28079;BME280;15388;42.238;24.684;2022-11-11T13:36:04;100649.78;;;15.76;100.00
28079;BME280;15388;42.238;24.684;2022-11-11T13:38:45;100644.41;;;15.76;100.00
28079;BME280;15388;42.238;24.684;2022-11-11T13:41:11;100646.38;;;15.74;100.00
28079;BME280;15388;42.238;24.684;2022-11-11T13:43:46;100648.50;;;15.81;100.00
28079;BME280;15388;42.238;24.684;2022-11-11T13:46:58;100647.50;;;15.82;100.00
28079;BME280;15388;42.238;24.684;2022-11-11T13:48:59;100647.50;;;15.82;100.00
28079;BME280;15388;42.238;24.684;2022-11-11T13:51:36;100656.28;;;15.84;100.00
28079;BME280;15388;42.238;24.684;2022-11-11T13:54:03;100661.63;;;15.84;100.00
28079;BME280;15388;42.238;24.684;2022-11-11T13:56:36;100658.81;;;15.85;100.00
28079;BME280;15388;42.238;24.684;2022-11-11T13:59:02;100664.34;;;15.64;100.00
28079;BME280;15388;42.238;24.684;2022-11-11T14:01:34;100661.94;;;15.41;100.00
28079;BME280;15388;42.238;24.684;2022-11-11T14:04:02;100662.06;;;15.49;100.00
28079;BME280;15388;42.238;24.684;2022-11-11T14:06:47;100660.13;;;15.41;100.00
28079;BME280;15388;42.238;24.684;2022-11-11T14:09:50;100663.63;;;15.22;100.00
28079;BME280;15388;42.238;24.684;2022-11-11T14:14:53;100667.00;;;15.14;100.00
28079;BME280;15388;42.238;24.684;2022-11-11T14:17:19;100661.63;;;15.14;100.00